Time;durP1;ratioP1;P1;durP2;ratioP2;P2;SDS_P1;SDS_P2;PMS_P1;PMS_P2;Temp;Humidity;BMP_temperature;BMP_pressure;BME280_temperature;BME280_humidity;BME280_pressure;Samples;Min_cycle;Max_cycle;Signal;HPM_P1;HPM_P2
2021/10/01 00:01:39;;;;;;;2.70;1.38;;;8.70;71.80;;;;;;5033122;28;20060;-67
2021/10/01 00:04:05;;;;;;;2.15;1.10;;;8.60;72.00;;;;;;5025863;28;21293;-66
2021/10/01 00:06:30;;;;;;;2.63;1.77;;;8.50;71.90;;;;;;5022504;28;20508;-67
2021/10/01 00:08:56;;;;;;;1.90;1.50;;;8.50;72.00;;;;;;5029108;28;20033;-67
2021/10/01 00:11:22;;;;;;;2.60;1.38;;;8.50;72.10;;;;;;5021472;28;20117;-65
2021/10/01 00:13:48;;;;;;;3.65;1.40;;;8.50;72.20;;;;;;5022663;28;20064;-67
2021/10/01 00:16:15;;;;;;;3.03;1.33;;;8.40;72.30;;;;;;5028500;28;20477;-66
2021/10/01 00:18:42;;;;;;;2.03;1.60;;;8.50;72.30;;;;;;5032181;28;20099;-67
2021/10/01 00:21:07;;;;;;;1.77;1.30;;;8.50;72.30;;;;;;5035823;28;20029;-67
2021/10/01 00:23:33;;;;;;;4.47;1.55;;;8.40;72.30;;;;;;5032319;28;20046;-67
2021/10/01 00:25:59;;;;;;;1.52;1.40;;;8.40;72.40;;;;;;5036364;28;20061;-67
2021/10/01 00:28:25;;;;;;;2.95;1.40;;;8.40;72.30;;;;;;5030081;28;20132;-66
2021/10/01 00:30:50;;;;;;;4.13;1.65;;;8.40;72.40;;;;;;5029661;28;20184;-67
2021/10/01 00:33:16;;;;;;;2.95;1.70;;;8.30;72.50;;;;;;5031178;28;20037;-67
2021/10/01 00:35:42;;;;;;;1.95;1.40;;;8.30;72.70;;;;;;5028697;28;20060;-67
2021/10/01 00:38:07;;;;;;;1.50;1.30;;;8.20;72.70;;;;;;5032117;28;20033;-67
2021/10/01 00:40:33;;;;;;;2.83;1.40;;;8.30;73.00;;;;;;5031286;28;20037;-67
2021/10/01 00:42:58;;;;;;;2.03;1.13;;;8.10;73.10;;;;;;5031673;28;20033;-67
2021/10/01 00:45:24;;;;;;;2.28;1.23;;;8.10;73.40;;;;;;5032653;28;20041;-66
2021/10/01 00:47:50;;;;;;;2.30;1.35;;;8.00;73.30;;;;;;5034224;28;20033;-67
2021/10/01 00:50:16;;;;;;;1.48;1.23;;;8.10;73.30;;;;;;5029572;28;20045;-67
2021/10/01 00:52:42;;;;;;;1.30;1.15;;;8.00;73.20;;;;;;5030193;28;20036;-67
2021/10/01 00:55:08;;;;;;;3.05;1.33;;;8.00;73.10;;;;;;5028657;28;20045;-66
2021/10/01 00:57:34;;;;;;;1.40;1.30;;;8.00;73.20;;;;;;5033527;28;20064;-66
2021/10/01 01:00:00;;;;;;;3.22;1.30;;;8.10;73.30;;;;;;5029770;28;20060;-67
2021/10/01 01:02:27;;;;;;;2.40;1.30;;;8.10;73.20;;;;;;5039375;28;20037;-67
2021/10/01 01:04:53;;;;;;;2.53;1.38;;;8.10;73.30;;;;;;5054043;28;20111;-67
2021/10/01 01:07:37;;;;;;;2.60;1.40;;;8.10;73.30;;;;;;5054150;28;20116;-67
2021/10/01 01:10:09;;;;;;;2.77;1.40;;;8.10;73.10;;;;;;5051461;28;20044;-66
2021/10/01 01:13:12;;;;;;;1.70;1.42;;;8.10;72.80;;;;;;5047535;28;21013;-67
2021/10/01 01:15:50;;;;;;;3.28;1.50;;;8.20;72.80;;;;;;5018389;28;20060;-67
2021/10/01 01:18:25;;;;;;;2.80;1.70;;;8.10;72.80;;;;;;5047020;28;20063;-66
2021/10/01 01:20:55;;;;;;;2.47;1.42;;;8.00;72.60;;;;;;5035544;28;20040;-67
2021/10/01 01:23:48;;;;;;;2.58;1.70;;;8.00;72.80;;;;;;5029429;28;20030;-67
2021/10/01 01:26:51;;;;;;;2.80;1.58;;;7.90;73.70;;;;;;5053460;28;20624;-67
2021/10/01 01:29:24;;;;;;;5.32;2.17;;;7.90;74.00;;;;;;5032912;28;20048;-67
2021/10/01 01:32:09;;;;;;;23.83;7.05;;;7.90;73.20;;;;;;5034615;28;20627;-67
2021/10/01 01:34:39;;;;;;;34.03;8.70;;;7.80;74.10;;;;;;5034999;28;20033;-67
2021/10/01 01:37:13;;;;;;;35.78;9.45;;;7.80;73.50;;;;;;5037208;28;20025;-67
2021/10/01 01:39:40;;;;;;;29.08;7.80;;;7.70;74.70;;;;;;5034497;28;20034;-67
2021/10/01 01:42:07;;;;;;;21.42;6.32;;;7.70;73.60;;;;;;5037049;28;20393;-66
2021/10/01 01:44:34;;;;;;;28.92;8.02;;;7.70;73.60;;;;;;5033149;28;20036;-66
2021/10/01 01:47:00;;;;;;;19.15;5.72;;;7.80;73.70;;;;;;5036733;28;20057;-67
2021/10/01 01:49:29;;;;;;;12.05;4.30;;;7.80;73.90;;;;;;5046334;28;20127;-67
2021/10/01 01:51:57;;;;;;;7.22;3.03;;;7.80;73.50;;;;;;5054617;28;20040;-66
2021/10/01 01:54:24;;;;;;;6.32;2.67;;;7.80;73.40;;;;;;5054321;28;20071;-67
2021/10/01 01:56:51;;;;;;;7.75;2.65;;;7.80;73.30;;;;;;5052833;28;20139;-66
2021/10/01 01:59:17;;;;;;;6.13;2.33;;;7.80;73.30;;;;;;5053939;28;20066;-67
2021/10/01 02:01:43;;;;;;;6.35;1.83;;;7.80;73.30;;;;;;5057172;28;20028;-66
2021/10/01 02:04:10;;;;;;;2.45;1.95;;;7.80;73.40;;;;;;5052827;28;20143;-66
2021/10/01 02:06:37;;;;;;;2.17;1.90;;;7.70;73.50;;;;;;5055000;28;20136;-67
2021/10/01 02:09:04;;;;;;;3.80;1.77;;;7.70;73.50;;;;;;5056069;28;20504;-66
2021/10/01 02:11:30;;;;;;;2.30;1.40;;;7.70;73.50;;;;;;5050075;28;20491;-66
2021/10/01 02:13:58;;;;;;;5.10;1.55;;;7.70;73.40;;;;;;5055904;28;20037;-67
2021/10/01 02:16:26;;;;;;;1.50;1.40;;;7.60;73.40;;;;;;5052025;28;20036;-67
2021/10/01 02:18:54;;;;;;;2.58;1.58;;;7.60;73.50;;;;;;5050697;28;20052;-66
2021/10/01 02:21:22;;;;;;;1.73;1.48;;;7.60;73.60;;;;;;5054815;28;20547;-67
2021/10/01 02:23:48;;;;;;;1.95;1.50;;;7.60;73.70;;;;;;5054490;28;20064;-67
2021/10/01 02:26:36;;;;;;;1.67;1.30;;;7.60;73.70;;;;;;5051600;28;20059;-67
2021/10/01 02:29:13;;;;;;;2.40;1.70;;;7.50;73.90;;;;;;5054789;28;20087;-66
2021/10/01 02:31:45;;;;;;;1.70;1.60;;;7.50;73.80;;;;;;5055147;28;20055;-67
2021/10/01 02:34:13;;;;;;;2.15;1.50;;;7.50;73.90;;;;;;5053297;28;20373;-67
2021/10/01 02:36:38;;;;;;;4.22;1.65;;;7.40;73.80;;;;;;5049505;28;20030;-66
2021/10/01 02:39:04;;;;;;;1.88;1.65;;;7.40;73.90;;;;;;5046132;28;20123;-66
2021/10/01 02:41:29;;;;;;;3.63;1.83;;;7.40;74.00;;;;;;5046603;28;20041;-66
2021/10/01 02:43:55;;;;;;;2.00;1.55;;;7.30;74.20;;;;;;5051235;28;20025;-67
2021/10/01 02:46:21;;;;;;;1.70;1.60;;;7.30;74.50;;;;;;5054988;28;20043;-67
2021/10/01 02:48:46;;;;;;;2.40;1.40;;;7.30;74.70;;;;;;5053755;28;20569;-67
2021/10/01 02:51:19;;;;;;;2.65;1.60;;;7.30;74.70;;;;;;5052227;28;20171;-67
2021/10/01 02:53:56;;;;;;;2.58;1.50;;;7.30;75.00;;;;;;5053456;28;20032;-66
2021/10/01 02:56:34;;;;;;;1.63;1.52;;;7.30;74.70;;;;;;5050403;28;20037;-68
2021/10/01 02:59:03;;;;;;;1.58;1.48;;;7.30;74.90;;;;;;5053520;28;20025;-66
2021/10/01 03:01:30;;;;;;;2.30;1.60;;;7.40;74.50;;;;;;5051410;28;21002;-67
2021/10/01 03:04:01;;;;;;;3.20;1.60;;;7.40;74.20;;;;;;5054438;28;20096;-66
2021/10/01 03:06:34;;;;;;;2.10;1.45;;;7.40;74.20;;;;;;5052556;28;20120;-67
2021/10/01 03:09:03;;;;;;;3.00;1.45;;;7.40;74.20;;;;;;5055124;28;20057;-66
2021/10/01 03:11:30;;;;;;;2.53;1.50;;;7.30;74.00;;;;;;5050079;28;20074;-66
2021/10/01 03:13:58;;;;;;;1.55;1.45;;;7.30;74.00;;;;;;5051363;28;20413;-67
2021/10/01 03:16:25;;;;;;;2.30;1.80;;;7.30;74.00;;;;;;5051611;28;20048;-67
2021/10/01 03:18:51;;;;;;;1.70;1.58;;;7.20;74.10;;;;;;5049701;28;20056;-66
2021/10/01 03:21:19;;;;;;;1.65;1.40;;;7.20;74.20;;;;;;5044757;28;20033;-66
2021/10/01 03:23:46;;;;;;;4.55;1.80;;;7.20;75.20;;;;;;5048072;28;20128;-66
2021/10/01 03:26:13;;;;;;;3.00;1.50;;;7.20;74.30;;;;;;5052307;28;20049;-66
2021/10/01 03:28:41;;;;;;;2.40;1.83;;;7.20;74.20;;;;;;5053029;28;20037;-67
2021/10/01 03:31:07;;;;;;;3.42;1.92;;;7.20;74.20;;;;;;5048489;28;20044;-66
2021/10/01 03:33:33;;;;;;;3.22;1.50;;;7.10;74.00;;;;;;5048433;28;20041;-66
2021/10/01 03:35:59;;;;;;;2.40;1.75;;;7.00;74.00;;;;;;5050701;28;20113;-66
2021/10/01 03:38:25;;;;;;;2.08;1.55;;;7.00;74.20;;;;;;5047465;28;20044;-65
2021/10/01 03:40:51;;;;;;;2.30;1.67;;;7.00;74.40;;;;;;5048925;28;20132;-67
2021/10/01 03:43:17;;;;;;;1.90;1.58;;;6.90;74.40;;;;;;5048148;28;20118;-66
2021/10/01 03:45:44;;;;;;;2.25;1.80;;;6.90;74.60;;;;;;5048800;28;20056;-67
2021/10/01 03:48:10;;;;;;;2.58;1.60;;;6.90;74.60;;;;;;5046823;28;20041;-66
2021/10/01 03:50:36;;;;;;;3.20;1.75;;;6.90;74.70;;;;;;5044389;28;20036;-66
2021/10/01 03:53:04;;;;;;;2.17;1.83;;;6.90;74.70;;;;;;5044638;28;20033;-66
2021/10/01 03:55:31;;;;;;;1.92;1.63;;;6.90;74.70;;;;;;5049309;28;20044;-66
2021/10/01 03:57:56;;;;;;;2.15;1.90;;;6.90;74.70;;;;;;5049156;28;20029;-66
2021/10/01 04:00:22;;;;;;;3.88;1.95;;;6.90;74.70;;;;;;5053133;28;20127;-66
2021/10/01 04:02:48;;;;;;;2.63;1.75;;;6.90;74.60;;;;;;5029234;28;20029;-66
2021/10/01 04:05:14;;;;;;;3.55;2.53;;;6.90;74.60;;;;;;5028351;28;20535;-66
2021/10/01 04:07:40;;;;;;;2.80;2.20;;;6.90;74.60;;;;;;5024727;28;20124;-66
2021/10/01 04:10:06;;;;;;;2.50;2.30;;;6.90;74.70;;;;;;5021300;28;20043;-66
2021/10/01 04:12:33;;;;;;;4.57;2.17;;;6.80;74.60;;;;;;5027107;28;20098;-66
2021/10/01 04:14:59;;;;;;;4.00;2.47;;;6.80;74.70;;;;;;5030381;28;20037;-66
2021/10/01 04:17:24;;;;;;;3.05;2.33;;;6.80;74.70;;;;;;5030274;28;20415;-66
2021/10/01 04:19:50;;;;;;;2.35;1.92;;;6.80;74.80;;;;;;5027480;28;20084;-66
2021/10/01 04:22:17;;;;;;;4.55;2.30;;;6.70;74.80;;;;;;5032376;28;20343;-67
2021/10/01 04:24:43;;;;;;;3.50;2.63;;;6.70;74.90;;;;;;5029407;28;20036;-66
2021/10/01 04:27:09;;;;;;;3.75;2.70;;;6.70;74.90;;;;;;5035066;28;20029;-66
2021/10/01 04:29:35;;;;;;;3.13;2.80;;;6.70;75.10;;;;;;5027467;28;20370;-66
2021/10/01 04:32:04;;;;;;;3.40;3.05;;;6.70;75.10;;;;;;5022717;28;20033;-66
2021/10/01 04:34:33;;;;;;;3.00;2.70;;;6.70;75.10;;;;;;5028267;28;20431;-66
2021/10/01 04:36:59;;;;;;;3.70;2.63;;;6.70;75.80;;;;;;5032264;28;20432;-65
2021/10/01 04:39:25;;;;;;;2.92;2.53;;;6.70;75.10;;;;;;5025277;28;20087;-66
2021/10/01 04:41:51;;;;;;;2.47;2.28;;;6.70;75.00;;;;;;5032475;28;20041;-64
2021/10/01 04:44:18;;;;;;;6.03;2.58;;;6.60;75.00;;;;;;5028652;28;20122;-64
2021/10/01 04:46:44;;;;;;;3.08;2.40;;;6.60;75.00;;;;;;5030944;28;20057;-66
2021/10/01 04:49:11;;;;;;;2.78;2.42;;;6.60;75.10;;;;;;5035505;28;20037;-66
2021/10/01 04:51:37;;;;;;;4.65;2.30;;;6.60;75.00;;;;;;5034499;28;20438;-67
2021/10/01 04:54:02;;;;;;;3.60;2.90;;;6.60;75.00;;;;;;5033355;28;20057;-66
2021/10/01 04:56:28;;;;;;;21.45;10.88;;;6.60;75.20;;;;;;5032606;28;20525;-66
2021/10/01 04:58:54;;;;;;;7.82;4.35;;;6.60;75.20;;;;;;5035452;28;20030;-66
2021/10/01 05:01:20;;;;;;;4.72;2.90;;;6.70;75.40;;;;;;5035003;28;20049;-67
2021/10/01 05:03:46;;;;;;;7.78;2.63;;;6.70;75.30;;;;;;5033778;28;20490;-67
2021/10/01 05:06:12;;;;;;;3.15;2.30;;;6.70;75.10;;;;;;5036010;28;20129;-66
2021/10/01 05:08:37;;;;;;;3.50;2.38;;;6.70;74.90;;;;;;5032582;28;20068;-66
2021/10/01 05:11:03;;;;;;;4.20;2.60;;;6.70;74.80;;;;;;5034645;28;20135;-66
2021/10/01 05:13:28;;;;;;;2.75;2.08;;;6.70;74.70;;;;;;5033320;28;20522;-66
2021/10/01 05:15:54;;;;;;;2.60;2.35;;;6.70;74.80;;;;;;5033400;28;20064;-66
2021/10/01 05:18:22;;;;;;;3.63;2.50;;;6.70;74.70;;;;;;5035118;28;20048;-67
2021/10/01 05:20:47;;;;;;;3.80;2.55;;;6.60;74.70;;;;;;5037640;28;20501;-66
2021/10/01 05:23:13;;;;;;;6.28;3.05;;;6.60;74.80;;;;;;5055304;28;20041;-66
2021/10/01 05:25:39;;;;;;;4.30;2.80;;;6.60;74.80;;;;;;5054795;28;20048;-67
2021/10/01 05:28:05;;;;;;;6.35;2.95;;;6.60;75.80;;;;;;5056187;28;20029;-66
2021/10/01 05:30:32;;;;;;;6.38;3.35;;;6.50;74.90;;;;;;5053428;28;20040;-66
2021/10/01 05:32:58;;;;;;;6.97;2.92;;;6.50;75.20;;;;;;5054550;28;20163;-66
2021/10/01 05:35:23;;;;;;;3.90;2.55;;;6.50;75.30;;;;;;5052511;28;20496;-66
2021/10/01 05:37:50;;;;;;;5.63;3.08;;;6.40;75.60;;;;;;5054946;28;20134;-65
2021/10/01 05:40:16;;;;;;;9.05;3.30;;;6.40;75.70;;;;;;5054190;28;20111;-67
2021/10/01 05:42:41;;;;;;;4.75;2.72;;;6.40;75.80;;;;;;5051721;28;20041;-66
2021/10/01 05:45:08;;;;;;;4.53;3.00;;;6.40;76.00;;;;;;5055110;28;20048;-67
2021/10/01 05:47:34;;;;;;;6.43;3.30;;;6.40;76.10;;;;;;5053197;28;20124;-67
2021/10/01 05:50:03;;;;;;;9.68;3.30;;;6.40;76.20;;;;;;5052843;28;20048;-67
2021/10/01 05:54:58;;;;;;;6.93;3.45;;;6.40;76.20;;;;;;5051359;28;20083;-66
2021/10/01 05:57:24;;;;;;;7.65;5.10;;;6.50;76.20;;;;;;5052334;28;20037;-66
2021/10/01 05:59:50;;;;;;;8.02;4.03;;;6.50;77.10;;;;;;5053849;28;20032;-66
2021/10/01 06:02:18;;;;;;;8.15;4.93;;;6.50;76.40;;;;;;5052769;28;20052;-67
2021/10/01 06:04:44;;;;;;;6.78;3.50;;;6.60;76.40;;;;;;5053516;28;20451;-66
2021/10/01 06:07:12;;;;;;;6.28;3.70;;;6.70;76.50;;;;;;5071769;28;20029;-66
2021/10/01 06:09:42;;;;;;;5.45;3.05;;;6.70;76.40;;;;;;5055838;28;20033;-66
2021/10/01 06:12:09;;;;;;;4.65;2.97;;;6.70;76.50;;;;;;5054612;28;20025;-67
2021/10/01 06:14:36;;;;;;;4.32;2.85;;;6.80;76.50;;;;;;5056213;28;20025;-67
2021/10/01 06:17:03;;;;;;;5.30;2.95;;;6.80;76.50;;;;;;5055592;28;20398;-67
2021/10/01 06:19:29;;;;;;;6.57;3.05;;;6.80;76.60;;;;;;5056977;28;20143;-67
2021/10/01 06:21:56;;;;;;;5.00;2.90;;;6.80;76.80;;;;;;5054382;28;20044;-66
2021/10/01 06:24:22;;;;;;;8.23;3.13;;;6.80;76.80;;;;;;5057446;28;20037;-66
2021/10/01 06:26:48;;;;;;;11.82;3.70;;;6.90;77.00;;;;;;5036514;28;20048;-65
2021/10/01 06:29:15;;;;;;;5.70;3.53;;;6.90;77.20;;;;;;5036475;28;20456;-66
2021/10/01 06:31:41;;;;;;;4.18;3.08;;;7.00;77.30;;;;;;5035522;28;20052;-66
2021/10/01 06:34:07;;;;;;;7.07;3.65;;;7.00;77.10;;;;;;5036916;28;20029;-65
2021/10/01 06:36:33;;;;;;;5.70;3.72;;;7.10;77.10;;;;;;5037058;28;20040;-66
2021/10/01 06:38:58;;;;;;;7.60;4.05;;;7.10;77.00;;;;;;5037295;28;20029;-65
2021/10/01 06:41:24;;;;;;;10.30;3.90;;;7.20;77.00;;;;;;5037957;28;20521;-66
2021/10/01 06:43:57;;;;;;;7.10;3.90;;;7.20;77.20;;;;;;5037421;28;20068;-66
2021/10/01 06:46:34;;;;;;;9.88;3.60;;;7.30;77.10;;;;;;5035061;28;20061;-68
2021/10/01 08:20:48;;;;;;;8.60;4.07;;;10.10;77.20;;;;;;5033614;28;20064;-66
2021/10/01 08:23:15;;;;;;;6.15;3.92;;;10.20;77.00;;;;;;5047978;28;20052;-67
2021/10/01 08:25:41;;;;;;;13.00;3.60;;;10.30;77.10;;;;;;5030636;28;20071;-67
2021/10/01 08:28:07;;;;;;;10.50;3.97;;;10.40;77.00;;;;;;5031871;28;20488;-67
2021/10/01 08:30:34;;;;;;;12.10;4.07;;;10.50;77.20;;;;;;5032233;28;20068;-67
2021/10/01 08:33:00;;;;;;;11.68;4.38;;;10.60;77.30;;;;;;5033241;28;20059;-67
2021/10/01 08:35:26;;;;;;;8.27;3.90;;;10.70;77.20;;;;;;5034890;28;20152;-67
2021/10/01 08:37:54;;;;;;;7.60;3.95;;;10.80;77.10;;;;;;5033163;28;20049;-67
2021/10/01 08:40:21;;;;;;;12.25;4.22;;;10.90;77.00;;;;;;5036091;28;20029;-67
2021/10/01 08:42:48;;;;;;;5.65;3.65;;;11.00;77.00;;;;;;5032826;28;20491;-67
2021/10/01 08:45:16;;;;;;;5.72;3.45;;;11.10;77.00;;;;;;5033016;28;20057;-67
2021/10/01 08:47:42;;;;;;;10.73;3.55;;;11.20;76.80;;;;;;5031894;28;20030;-68
2021/10/01 08:50:10;;;;;;;5.65;3.42;;;11.40;76.80;;;;;;5031631;28;20043;-67
2021/10/01 08:52:36;;;;;;;6.50;3.60;;;11.50;76.60;;;;;;5031147;28;20069;-67
2021/10/01 08:55:04;;;;;;;7.53;3.80;;;11.60;76.30;;;;;;5032636;28;20056;-64
2021/10/01 08:57:31;;;;;;;5.25;3.72;;;11.70;76.30;;;;;;5033500;28;20407;-68
2021/10/01 08:59:58;;;;;;;5.75;3.80;;;11.80;76.20;;;;;;5032271;28;20108;-67
2021/10/01 09:02:24;;;;;;;6.45;3.97;;;11.90;76.30;;;;;;5034659;28;20496;-68
2021/10/01 09:04:55;;;;;;;6.75;4.18;;;11.90;76.20;;;;;;5034681;28;20037;-66
2021/10/01 09:07:23;;;;;;;4.50;3.75;;;12.00;76.30;;;;;;5035372;28;20112;-67
2021/10/01 09:09:52;;;;;;;4.32;3.35;;;12.10;76.50;;;;;;5033247;28;20042;-67
2021/10/01 09:12:18;;;;;;;4.63;3.85;;;12.20;76.60;;;;;;5047040;28;20048;-67
2021/10/01 09:14:52;;;;;;;4.88;3.22;;;12.40;76.50;;;;;;5034725;28;20036;-67
2021/10/01 09:17:21;;;;;;;4.63;3.80;;;12.50;76.30;;;;;;5033367;28;20029;-68
2021/10/01 09:19:48;;;;;;;4.38;3.40;;;12.60;76.10;;;;;;5032799;28;20030;-68
2021/10/01 09:22:35;;;;;;;5.68;3.60;;;12.70;75.80;;;;;;5031987;28;20049;-67
2021/10/01 09:25:24;;;;;;;4.85;3.17;;;12.90;76.30;;;;;;5031473;28;20068;-69
2021/10/01 09:27:58;;;;;;;5.07;3.33;;;13.00;76.00;;;;;;5032153;28;20033;-68
2021/10/01 09:30:24;;;;;;;4.00;3.60;;;13.10;75.40;;;;;;5034078;28;20040;-68
2021/10/01 09:33:22;;;;;;;5.18;3.28;;;13.20;75.10;;;;;;5033151;28;20041;-68
2021/10/01 09:35:48;;;;;;;8.00;3.80;;;13.30;74.90;;;;;;5010500;28;20344;-68
2021/10/01 09:38:16;;;;;;;5.40;3.63;;;13.40;74.60;;;;;;5048733;28;20442;-68
2021/10/01 09:40:43;;;;;;;7.28;3.60;;;13.50;74.60;;;;;;5053736;28;20523;-67
2021/10/01 09:43:27;;;;;;;4.57;3.60;;;13.60;74.70;;;;;;5057670;28;20063;-66
2021/10/01 09:46:08;;;;;;;5.22;3.17;;;13.70;74.30;;;;;;5053114;28;20025;-67
2021/10/01 09:48:36;;;;;;;6.50;3.28;;;13.80;74.50;;;;;;5055893;28;20048;-67
2021/10/01 09:51:17;;;;;;;5.20;3.15;;;13.90;74.30;;;;;;5053916;28;20034;-67
2021/10/01 09:53:48;;;;;;;4.88;3.40;;;14.10;74.00;;;;;;5054021;28;20031;-68
2021/10/01 09:56:28;;;;;;;5.70;3.10;;;14.20;74.00;;;;;;5055913;28;20087;-68
2021/10/01 09:59:03;;;;;;;6.97;3.22;;;14.30;73.70;;;;;;5054140;28;20105;-67
2021/10/01 10:01:29;;;;;;;;;;;14.50;73.30;;;;;;5059731;28;20040;-67
2021/10/01 10:03:54;;;;;;;5.85;2.38;;;14.60;73.50;;;;;;5057000;28;19920;-67
2021/10/01 10:06:20;;;;;;;2.70;2.03;;;14.80;73.10;;;;;;5059385;28;20029;-68
2021/10/01 10:08:46;;;;;;;4.82;2.00;;;14.90;72.80;;;;;;5059321;28;20036;-67
2021/10/01 10:11:20;;;;;;;2.20;1.90;;;15.00;72.70;;;;;;5054627;28;20047;-67
2021/10/01 10:13:47;;;;;;;6.30;2.17;;;15.10;72.50;;;;;;5057591;28;20086;-66
2021/10/01 10:16:25;;;;;;;2.38;2.15;;;15.30;72.40;;;;;;5058774;28;20043;-68
2021/10/01 10:19:00;;;;;;;2.15;1.95;;;15.40;71.40;;;;;;5057559;28;20575;-67
2021/10/01 10:21:27;;;;;;;3.95;2.08;;;15.50;71.30;;;;;;5058152;28;20116;-68
2021/10/01 10:23:53;;;;;;;2.30;1.60;;;15.60;71.10;;;;;;5058566;28;20064;-67
2021/10/01 10:26:20;;;;;;;1.88;1.77;;;15.80;70.80;;;;;;5059770;28;20036;-68
2021/10/01 10:28:47;;;;;;;2.13;1.60;;;15.90;70.70;;;;;;5057561;28;20044;-68
2021/10/01 10:31:14;;;;;;;3.25;1.33;;;16.00;70.20;;;;;;5054857;28;20726;-67
2021/10/01 10:33:46;;;;;;;3.40;1.30;;;16.10;70.10;;;;;;5050714;28;20040;-68
2021/10/01 10:36:30;;;;;;;1.65;1.40;;;16.20;69.50;;;;;;5057076;28;20037;-68
2021/10/01 10:38:58;;;;;;;3.10;1.60;;;16.40;68.70;;;;;;5056481;28;20111;-68
2021/10/01 10:41:26;;;;;;;3.20;1.38;;;16.50;69.00;;;;;;5058518;28;20419;-67
2021/10/01 10:43:53;;;;;;;2.05;1.25;;;16.60;68.90;;;;;;5054647;28;20039;-67
2021/10/01 10:46:34;;;;;;;1.40;1.20;;;16.70;68.80;;;;;;5052019;28;20386;-67
2021/10/01 10:49:22;;;;;;;3.92;1.20;;;16.80;67.60;;;;;;5050344;28;20047;-67
2021/10/01 10:52:04;;;;;;;1.38;0.77;;;17.00;67.20;;;;;;5048969;28;20473;-68
2021/10/01 10:54:31;;;;;;;1.35;0.80;;;17.10;67.10;;;;;;5054929;28;20124;-67
2021/10/01 10:57:15;;;;;;;1.85;1.10;;;17.20;67.30;;;;;;5057697;28;20037;-68
2021/10/01 10:59:48;;;;;;;1.85;1.00;;;17.30;66.30;;;;;;5058245;28;20037;-68
2021/10/01 11:02:44;;;;;;;1.40;0.85;;;17.40;66.60;;;;;;5053936;28;20044;-68
2021/10/01 11:05:27;;;;;;;1.67;0.98;;;17.60;66.00;;;;;;5054686;28;20528;-68
2021/10/01 11:08:01;;;;;;;1.98;1.02;;;17.70;65.30;;;;;;5056042;28;20131;-68
2021/10/01 11:10:47;;;;;;;4.05;0.90;;;17.80;65.30;;;;;;5052502;28;20776;-66
2021/10/01 11:13:18;;;;;;;4.60;0.90;;;17.90;64.70;;;;;;5055745;28;20090;-67
2021/10/01 11:16:08;;;;;;;4.57;1.10;;;18.00;64.60;;;;;;5056207;28;20040;-67
2021/10/01 11:18:46;;;;;;;3.63;0.90;;;18.10;64.10;;;;;;5056009;28;20034;-65
2021/10/01 11:21:33;;;;;;;7.78;1.10;;;18.20;63.80;;;;;;5055633;28;20443;-67
2021/10/01 11:24:13;;;;;;;3.13;1.38;;;18.30;63.70;;;;;;5053942;28;20029;-68
2021/10/01 11:26:43;;;;;;;2.00;0.90;;;18.40;63.40;;;;;;5053769;28;20094;-66
2021/10/01 11:29:28;;;;;;;1.27;0.85;;;18.50;63.80;;;;;;5053519;28;20147;-68
2021/10/01 11:31:55;;;;;;;;;;;18.60;62.30;;;;;;5051804;28;21386;-66
2021/10/01 11:34:44;;;;;;;2.60;0.75;;;18.70;63.70;;;;;;5050836;28;19920;-69
2021/10/01 11:37:44;;;;;;;2.60;1.10;;;18.80;62.80;;;;;;5037181;28;20510;-66
2021/10/01 11:40:36;;;;;;;2.22;0.63;;;19.00;62.70;;;;;;5008551;28;20514;-68
2021/10/01 11:43:02;;;;;;;0.77;0.68;;;19.10;61.90;;;;;;5037069;28;20076;-66
2021/10/01 11:45:33;;;;;;;2.88;0.80;;;19.10;62.20;;;;;;5035890;28;20033;-66
2021/10/01 11:48:10;;;;;;;2.17;0.80;;;19.20;61.30;;;;;;5034188;28;20112;-66
2021/10/01 11:50:49;;;;;;;1.15;0.80;;;19.20;60.10;;;;;;5052102;28;20040;-66
2021/10/01 11:53:19;;;;;;;2.72;0.90;;;19.30;60.30;;;;;;5054342;28;20082;-66
2021/10/01 11:55:54;;;;;;;1.30;0.90;;;19.40;60.80;;;;;;5050552;28;20076;-66
2021/10/01 11:58:21;;;;;;;2.00;0.80;;;19.50;60.00;;;;;;5051075;28;20028;-66
2021/10/01 12:00:46;;;;;;;0.70;0.70;;;19.60;60.90;;;;;;5053002;28;20036;-66
2021/10/01 12:03:15;;;;;;;2.50;0.80;;;19.60;60.50;;;;;;5053218;28;20053;-66
2021/10/01 12:05:48;;;;;;;2.28;0.98;;;19.70;59.90;;;;;;5053739;28;20060;-66
2021/10/01 12:08:16;;;;;;;1.25;0.57;;;19.70;59.70;;;;;;5052229;28;20040;-66
2021/10/01 12:10:46;;;;;;;1.23;0.82;;;19.80;59.90;;;;;;5052432;28;20576;-66
2021/10/01 12:13:13;;;;;;;2.28;0.75;;;19.80;59.40;;;;;;5053517;28;20037;-66
2021/10/01 12:15:39;;;;;;;2.38;0.82;;;19.90;59.50;;;;;;5055137;28;20229;-66
2021/10/01 12:18:07;;;;;;;1.45;0.77;;;19.90;59.20;;;;;;5055306;28;20029;-66
2021/10/01 12:20:48;;;;;;;2.30;0.90;;;20.00;59.10;;;;;;5055020;28;20036;-65
2021/10/01 12:23:28;;;;;;;1.40;0.70;;;20.10;58.00;;;;;;5053257;28;20515;-66
2021/10/01 12:25:55;;;;;;;1.25;0.60;;;20.20;58.40;;;;;;5052950;28;20044;-66
2021/10/01 12:28:22;;;;;;;2.08;0.90;;;20.30;58.80;;;;;;5054408;28;20039;-67
2021/10/01 12:31:02;;;;;;;1.55;1.00;;;20.30;58.70;;;;;;5035025;28;20057;-67
2021/10/01 12:33:28;;;;;;;8.38;0.90;;;20.40;57.40;;;;;;5032914;28;20041;-67
2021/10/01 12:35:54;;;;;;;0.90;0.63;;;20.40;58.20;;;;;;5033959;28;20061;-67
2021/10/01 12:38:20;;;;;;;1.02;0.75;;;20.50;57.80;;;;;;5034341;28;20501;-67
2021/10/01 12:40:45;;;;;;;1.25;0.90;;;20.60;57.10;;;;;;5034573;28;20115;-66
2021/10/01 12:43:11;;;;;;;2.00;1.00;;;20.60;57.10;;;;;;5034227;28;20033;-67
2021/10/01 12:45:39;;;;;;;2.35;0.82;;;20.60;57.00;;;;;;5032529;28;20421;-67
2021/10/01 12:48:16;;;;;;;2.17;1.05;;;20.70;57.00;;;;;;5031725;28;20033;-66
2021/10/01 12:50:42;;;;;;;1.15;0.90;;;20.70;55.70;;;;;;5029750;28;20045;-66
2021/10/01 12:53:10;;;;;;;2.08;1.08;;;20.70;56.80;;;;;;5032442;28;20057;-67
2021/10/01 12:55:36;;;;;;;1.55;1.20;;;20.70;57.30;;;;;;5033562;28;20040;-66
2021/10/01 12:58:02;;;;;;;2.90;1.10;;;20.80;56.60;;;;;;5035268;28;20034;-67
2021/10/01 13:00:33;;;;;;;2.08;0.93;;;20.80;56.20;;;;;;5032971;28;20026;-67
2021/10/01 13:02:59;;;;;;;1.58;1.20;;;20.80;56.60;;;;;;5034436;28;20029;-67
2021/10/01 13:05:26;;;;;;;3.38;1.20;;;20.80;56.30;;;;;;5034428;28;20313;-66
2021/10/01 13:07:56;;;;;;;1.67;1.25;;;20.80;56.20;;;;;;5033669;28;20536;-66
2021/10/01 13:10:30;;;;;;;1.20;1.10;;;20.80;56.00;;;;;;5034011;28;20280;-66
2021/10/01 13:12:59;;;;;;;1.77;1.23;;;20.90;55.90;;;;;;5037767;28;20128;-66
2021/10/01 13:15:33;;;;;;;2.33;1.00;;;20.90;56.40;;;;;;5059187;28;20033;-66
2021/10/01 13:18:02;;;;;;;1.85;1.20;;;20.90;56.10;;;;;;5058575;28;20039;-66
2021/10/01 13:20:28;;;;;;;1.48;1.17;;;21.00;56.40;;;;;;5043810;28;20313;-66
2021/10/01 13:23:01;;;;;;;1.70;1.40;;;21.00;56.50;;;;;;5047522;28;20041;-66
2021/10/01 13:25:42;;;;;;;1.55;1.20;;;21.00;56.00;;;;;;5048470;28;20434;-66
2021/10/01 13:28:08;;;;;;;1.00;0.90;;;21.10;56.00;;;;;;5054707;28;20063;-65
2021/10/01 13:30:34;;;;;;;1.83;1.00;;;21.10;56.30;;;;;;5050700;28;20040;-65
2021/10/01 13:33:01;;;;;;;1.88;1.17;;;21.10;56.40;;;;;;5054434;28;20400;-66
2021/10/01 13:35:27;;;;;;;1.75;1.23;;;21.20;56.40;;;;;;5050396;28;20025;-66
2021/10/01 13:37:53;;;;;;;4.53;1.20;;;21.20;56.40;;;;;;5053072;28;20083;-67
2021/10/01 13:40:19;;;;;;;2.45;1.02;;;21.20;56.20;;;;;;5054983;28;20063;-66
2021/10/01 13:42:45;;;;;;;1.85;1.23;;;21.30;56.00;;;;;;5052532;28;20387;-66
2021/10/01 13:45:11;;;;;;;2.10;1.48;;;21.30;56.00;;;;;;5056627;28;20079;-66
2021/10/01 13:47:37;;;;;;;1.45;1.10;;;21.30;56.00;;;;;;5054552;28;20082;-67
2021/10/01 13:50:05;;;;;;;2.13;1.30;;;21.30;56.30;;;;;;5054980;28;20161;-66
2021/10/01 13:52:31;;;;;;;2.38;1.45;;;21.30;56.20;;;;;;5051883;28;20116;-66
2021/10/01 13:54:56;;;;;;;2.50;1.50;;;21.40;56.20;;;;;;5056450;28;20125;-66
2021/10/01 13:57:22;;;;;;;2.85;1.33;;;21.40;56.10;;;;;;5048843;28;20033;-66
2021/10/01 13:59:51;;;;;;;2.25;1.23;;;21.40;56.10;;;;;;5054677;28;20062;-67
2021/10/01 14:02:17;;;;;;;4.65;1.30;;;21.50;56.00;;;;;;5044566;28;20037;-67
2021/10/01 14:04:42;;;;;;;7.00;1.25;;;21.50;56.00;;;;;;5056061;28;20158;-67
2021/10/01 14:07:08;;;;;;;3.05;1.55;;;21.50;55.90;;;;;;5058191;28;20492;-67
2021/10/01 14:09:34;;;;;;;3.45;1.40;;;21.60;56.10;;;;;;5057718;28;20055;-67
2021/10/01 14:11:59;;;;;;;4.05;1.33;;;21.60;56.20;;;;;;5054745;28;20233;-66
2021/10/01 14:14:25;;;;;;;1.30;1.20;;;21.60;56.20;;;;;;5057119;28;20500;-67
2021/10/01 14:16:51;;;;;;;1.73;1.30;;;21.60;56.20;;;;;;5056569;28;20056;-67
2021/10/01 14:19:16;;;;;;;5.90;1.50;;;21.60;56.10;;;;;;5057239;28;20122;-67
2021/10/01 14:21:43;;;;;;;1.77;1.27;;;21.60;56.10;;;;;;5056609;28;20041;-67
2021/10/01 14:24:09;;;;;;;2.22;1.48;;;21.70;56.20;;;;;;5055463;28;20063;-67
2021/10/01 14:26:34;;;;;;;5.10;1.40;;;21.70;56.00;;;;;;5055513;28;20075;-67
2021/10/01 14:29:00;;;;;;;3.53;1.23;;;21.60;56.00;;;;;;5057569;28;20040;-65
2021/10/01 14:31:25;;;;;;;1.88;1.23;;;21.70;56.00;;;;;;5056953;28;20029;-67
2021/10/01 14:33:51;;;;;;;3.42;1.55;;;21.70;56.00;;;;;;5056897;28;20031;-67
2021/10/01 14:36:17;;;;;;;2.33;1.90;;;21.60;56.00;;;;;;5056129;28;20033;-66
2021/10/01 14:38:43;;;;;;;1.42;1.20;;;21.70;55.90;;;;;;5057917;28;20385;-66